createdAt,value
2019-02-05T00:01:16.598Z,98031.45
2019-02-05T00:03:49.441Z,98032.23
2019-02-05T00:06:20.394Z,98031.11
2019-02-05T00:09:09.514Z,98028.83
2019-02-05T00:11:40.474Z,98027.68
2019-02-05T00:14:11.202Z,98028.33
2019-02-05T00:16:42.435Z,98025.44
2019-02-05T00:19:13.963Z,98019.50
2019-02-05T00:21:45.381Z,98025.91
2019-02-05T00:24:16.662Z,98025.79
2019-02-05T00:26:47.778Z,98028.03
2019-02-05T00:29:18.808Z,98029.33
2019-02-05T00:31:49.840Z,98023.69
2019-02-05T00:34:25.781Z,98022.26
2019-02-05T00:37:00.923Z,98026.08
2019-02-05T00:39:37.129Z,98025.40
2019-02-05T00:42:07.580Z,98032.00
2019-02-05T00:44:38.251Z,98030.85
2019-02-05T00:47:10.327Z,98028.76
2019-02-05T00:49:42.084Z,98028.11
2019-02-05T00:52:12.705Z,98029.55
2019-02-05T00:54:44.457Z,98025.67
2019-02-05T00:57:15.061Z,98025.48
2019-02-05T00:59:46.036Z,98024.88
2019-02-05T01:02:16.519Z,98026.77
2019-02-05T01:04:47.627Z,98026.63
2019-02-05T01:07:18.259Z,98024.53
2019-02-05T01:09:49.515Z,98020.84
2019-02-05T01:12:20.249Z,98019.73
2019-02-05T01:14:51.283Z,98018.48
2019-02-05T01:17:21.926Z,98011.11
2019-02-05T01:19:57.176Z,98011.09
2019-02-05T01:22:28.151Z,98004.84
2019-02-05T01:24:59.323Z,98006.75
2019-02-05T01:27:30.669Z,98004.31
2019-02-05T01:30:03.132Z,97998.86
2019-02-05T01:32:34.474Z,98000.45
2019-02-05T01:35:09.914Z,98004.95
2019-02-05T01:37:41.016Z,98004.13
2019-02-05T01:40:14.193Z,98009.27
2019-02-05T01:42:45.426Z,98007.32
2019-02-05T01:45:19.230Z,98008.11
2019-02-05T01:47:50.402Z,98010.38
2019-02-05T01:50:28.835Z,98013.30
2019-02-05T01:53:00.333Z,98012.35
2019-02-05T01:55:31.355Z,98018.31
2019-02-05T01:58:02.998Z,98019.63
2019-02-05T02:00:39.469Z,98013.23
2019-02-05T03:01:52.648Z,97997.55
2019-02-05T03:04:23.291Z,97998.19
2019-02-05T03:07:46.073Z,97993.05
2019-02-05T03:10:24.321Z,97999.75
2019-02-05T03:12:55.534Z,97992.20
2019-02-05T03:15:26.089Z,97985.55
2019-02-05T03:17:56.785Z,97981.00
2019-02-05T03:20:27.547Z,97981.64
2019-02-05T03:22:58.468Z,97987.27
2019-02-05T03:25:32.847Z,97979.91
2019-02-05T03:28:04.208Z,97980.66
2019-02-05T03:30:34.923Z,97975.70
2019-02-05T03:33:06.424Z,97975.20
2019-02-05T03:35:38.159Z,97974.59
2019-02-05T03:38:09.135Z,97970.45
2019-02-05T03:41:03.343Z,97976.24
2019-02-05T03:43:35.768Z,97983.80
2019-02-05T03:46:12.766Z,97985.75
2019-02-05T03:48:44.660Z,97981.87
2019-02-05T03:52:08.288Z,97979.45
2019-02-05T03:55:33.631Z,97986.63
2019-02-05T03:58:59.933Z,97985.41
2019-02-05T04:02:30.645Z,97988.61
2019-02-05T04:05:55.370Z,97992.77
2019-02-05T04:09:42.563Z,97990.53
2019-02-05T04:13:15.389Z,98000.12
2019-02-05T04:17:05.469Z,98003.68
2019-02-05T04:20:17.789Z,97984.73
2019-02-05T04:23:46.405Z,97984.42
2019-02-05T04:27:08.414Z,97977.89
2019-02-05T04:30:44.688Z,97969.68
2019-02-05T04:34:09.902Z,97962.19
2019-02-05T04:37:23.222Z,97957.74
2019-02-05T04:40:29.564Z,97965.69
2019-02-05T04:44:00.301Z,97974.55
2019-02-05T04:47:32.218Z,97985.19
2019-02-05T04:50:36.939Z,97993.73
2019-02-05T04:54:17.816Z,98002.52
2019-02-05T04:57:21.086Z,97997.55
2019-02-05T05:01:16.529Z,97999.67
2019-02-05T05:04:48.476Z,98004.75
2019-02-05T05:07:53.846Z,98003.30
2019-02-05T05:10:24.527Z,98002.93
2019-02-05T05:12:55.215Z,98009.34
2019-02-05T05:15:29.026Z,98014.95
2019-02-05T05:18:00.393Z,98020.39
2019-02-05T05:20:31.803Z,98014.68
2019-02-05T05:23:02.446Z,98010.14
2019-02-05T05:25:33.577Z,98001.57
2019-02-05T05:28:10.031Z,98008.38
2019-02-05T05:30:37.346Z,98000.12
2019-02-05T05:33:08.781Z,97998.65
2019-02-05T05:35:44.332Z,97995.48
2019-02-05T05:38:13.286Z,97999.29
2019-02-05T05:40:43.922Z,97997.83
2019-02-05T05:43:15.274Z,98004.00
2019-02-05T05:45:46.325Z,98011.90
2019-02-05T05:48:18.059Z,98016.63
2019-02-05T05:50:49.492Z,98006.06
2019-02-05T05:53:19.852Z,98009.36
2019-02-05T05:55:51.509Z,98010.45
2019-02-05T05:58:29.085Z,98000.38
2019-02-05T06:01:00.975Z,97997.52
2019-02-05T06:03:38.327Z,98002.73
2019-02-05T06:06:09.378Z,98010.44
2019-02-05T06:08:40.430Z,98008.45
2019-02-05T06:11:22.523Z,98005.92
2019-02-05T06:13:53.654Z,98012.70
2019-02-05T06:16:24.735Z,98023.23
2019-02-05T06:19:06.284Z,98022.75
2019-02-05T06:21:37.344Z,98025.24
2019-02-05T06:24:08.590Z,98024.05
2019-02-05T06:26:40.313Z,98031.33
2019-02-05T06:29:11.837Z,98037.55
2019-02-05T06:31:42.865Z,98035.92
2019-02-05T06:34:13.224Z,98044.44
2019-02-05T06:36:44.820Z,98041.45
2019-02-05T06:39:16.478Z,98045.34
2019-02-05T06:41:47.532Z,98055.89
2019-02-05T06:44:18.777Z,98062.40
2019-02-05T06:46:50.721Z,98057.50
2019-02-05T06:49:21.454Z,98056.75
2019-02-05T06:51:52.774Z,98063.53
2019-02-05T06:54:24.119Z,98057.95
2019-02-05T06:56:55.507Z,98062.63
2019-02-05T06:59:26.537Z,98060.22
2019-02-05T07:01:56.905Z,98067.44
2019-02-05T07:04:28.033Z,98068.86
2019-02-05T07:06:59.805Z,98072.59
2019-02-05T07:09:30.886Z,98077.58
2019-02-05T07:12:02.463Z,98076.67
2019-02-05T07:14:33.500Z,98087.92
2019-02-05T07:17:08.462Z,98092.03
2019-02-05T07:19:39.205Z,98093.59
2019-02-05T07:22:09.882Z,98092.52
2019-02-05T07:24:40.546Z,98092.84
2019-02-05T07:27:13.523Z,98088.90
2019-02-05T07:29:44.437Z,98090.09
2019-02-05T07:32:15.611Z,98086.42
2019-02-05T07:34:47.059Z,98099.92
2019-02-05T07:37:17.379Z,98097.53
2019-02-05T07:39:48.459Z,98102.05
2019-02-05T07:42:19.136Z,98101.59
2019-02-05T07:44:50.819Z,98115.16
2019-02-05T07:47:23.491Z,98118.39
2019-02-05T07:49:54.623Z,98120.78
2019-02-05T07:52:44.320Z,98124.53
2019-02-05T07:55:15.685Z,98128.08
2019-02-05T07:57:47.300Z,98127.48
2019-02-05T08:00:55.310Z,98130.42
2019-02-05T08:03:25.961Z,98142.94
2019-02-05T08:05:57.704Z,98145.78
2019-02-05T08:08:29.039Z,98155.25
2019-02-05T08:11:00.464Z,98160.38
2019-02-05T08:13:33.080Z,98164.09
2019-02-05T08:16:03.730Z,98160.59
2019-02-05T08:18:34.631Z,98161.59
2019-02-05T08:21:25.335Z,98157.25
2019-02-05T08:23:56.385Z,98158.53
2019-02-05T08:26:27.484Z,98163.87
2019-02-05T08:28:58.747Z,98169.52
2019-02-05T08:31:30.572Z,98164.36
2019-02-05T08:34:03.229Z,98161.12
2019-02-05T08:36:33.389Z,98171.58
2019-02-05T08:39:05.802Z,98174.13
2019-02-05T08:41:36.756Z,98180.41
2019-02-05T08:44:07.478Z,98185.44
2019-02-05T08:46:38.512Z,98183.82
2019-02-05T08:49:09.934Z,98188.33
2019-02-05T08:51:41.633Z,98195.58
2019-02-05T08:54:12.260Z,98192.98
2019-02-05T08:56:42.883Z,98192.50
2019-02-05T08:59:13.967Z,98187.65
2019-02-05T09:01:44.955Z,98185.70
2019-02-05T09:04:15.900Z,98182.19
2019-02-05T09:06:46.954Z,98182.20
2019-02-05T09:09:17.690Z,98187.19
2019-02-05T09:11:48.729Z,98186.21
2019-02-05T09:14:19.756Z,98187.04
2019-02-05T09:16:51.098Z,98190.27
2019-02-05T09:19:21.813Z,98192.53
2019-02-05T09:21:53.591Z,98189.31
2019-02-05T09:24:25.205Z,98185.72
2019-02-05T09:26:56.203Z,98187.63
2019-02-05T09:29:33.429Z,98197.58
2019-02-05T09:31:59.952Z,98197.50
2019-02-05T09:34:30.300Z,98200.73
2019-02-05T09:37:03.438Z,98196.05
2019-02-05T09:39:34.101Z,98194.77
2019-02-05T09:42:04.902Z,98188.19
2019-02-05T09:44:36.045Z,98184.58
2019-02-05T09:47:06.659Z,98181.63
2019-02-05T09:49:38.129Z,98193.73
2019-02-05T09:52:09.717Z,98189.48
2019-02-05T09:54:40.417Z,98190.58
2019-02-05T09:57:11.527Z,98193.09
2019-02-05T09:59:45.351Z,98194.13
2019-02-05T10:02:14.600Z,98198.22
2019-02-05T10:04:45.947Z,98201.16
2019-02-05T10:07:17.686Z,98197.52
2019-02-05T10:09:48.400Z,98198.48
2019-02-05T10:12:18.727Z,98203.93
2019-02-05T10:14:50.471Z,98209.05
2019-02-05T10:17:21.193Z,98215.34
2019-02-05T10:19:51.615Z,98207.98
2019-02-05T10:22:23.541Z,98212.73
2019-02-05T10:24:56.347Z,98205.19
2019-02-05T10:27:28.559Z,98198.84
2019-02-05T10:29:59.623Z,98200.06
2019-02-05T10:32:31.280Z,98208.44
2019-02-05T10:35:02.691Z,98207.33
2019-02-05T10:37:33.019Z,98208.54
2019-02-05T10:40:04.882Z,98203.91
2019-02-05T10:42:36.597Z,98202.13
2019-02-05T10:45:09.522Z,98199.06
2019-02-05T10:47:40.572Z,98191.72
2019-02-05T10:50:13.443Z,98193.99
2019-02-05T10:52:46.719Z,98198.82
2019-02-05T10:55:20.576Z,98195.95
2019-02-05T10:57:51.950Z,98191.60
2019-02-05T11:00:26.376Z,98186.95
2019-02-05T11:02:59.622Z,98184.59
2019-02-05T11:05:32.176Z,98185.28
2019-02-05T11:08:02.491Z,98188.13
2019-02-05T11:10:33.457Z,98188.80
2019-02-05T11:13:04.943Z,98187.75
2019-02-05T11:15:36.428Z,98187.17
2019-02-05T11:18:11.190Z,98186.21
2019-02-05T11:20:42.981Z,98187.88
2019-02-05T11:23:15.896Z,98182.00
2019-02-05T11:25:47.063Z,98181.01
2019-02-05T11:28:19.506Z,98181.56
2019-02-05T11:30:52.097Z,98175.27
2019-02-05T11:33:22.829Z,98173.42
2019-02-05T11:35:54.210Z,98172.70
2019-02-05T11:38:24.925Z,98169.05
2019-02-05T11:40:55.909Z,98172.11
2019-02-05T11:43:26.660Z,98175.42
2019-02-05T11:45:57.904Z,98170.31
2019-02-05T11:48:29.922Z,98172.80
2019-02-05T11:51:00.951Z,98165.73
2019-02-05T11:53:31.349Z,98165.58
2019-02-05T11:56:02.351Z,98170.14
2019-02-05T11:58:33.487Z,98159.42
2019-02-05T12:01:14.275Z,98153.70
2019-02-05T12:03:46.405Z,98159.77
2019-02-05T12:06:17.356Z,98144.80
2019-02-05T12:08:49.043Z,98149.89
2019-02-05T12:11:20.059Z,98147.86
2019-02-05T12:13:51.370Z,98154.62
2019-02-05T12:16:22.580Z,98147.23
2019-02-05T12:18:53.833Z,98145.19
2019-02-05T12:21:26.461Z,98141.27
2019-02-05T12:23:58.310Z,98140.69
2019-02-05T12:26:29.955Z,98140.64
2019-02-05T12:29:01.014Z,98145.88
2019-02-05T12:31:33.294Z,98145.81
2019-02-05T12:34:11.367Z,98150.70
2019-02-05T12:36:44.392Z,98145.20
2019-02-05T12:39:19.985Z,98143.36
2019-02-05T12:41:51.490Z,98143.08
2019-02-05T12:44:23.634Z,98137.28
2019-02-05T12:46:54.300Z,98137.16
2019-02-05T12:49:25.160Z,98139.41
2019-02-05T12:51:57.086Z,98137.99
2019-02-05T12:54:27.811Z,98142.31
2019-02-05T12:56:59.167Z,98140.72
2019-02-05T12:59:30.589Z,98129.03
2019-02-05T13:02:01.293Z,98138.38
2019-02-05T13:04:32.803Z,98143.06
2019-02-05T13:07:03.630Z,98133.92
2019-02-05T13:09:35.694Z,98137.09
2019-02-05T13:12:09.299Z,98127.50
2019-02-05T13:14:39.904Z,98121.45
2019-02-05T13:17:10.251Z,98122.03
2019-02-05T13:19:41.679Z,98121.07
2019-02-05T13:22:12.468Z,98114.33
2019-02-05T13:24:43.585Z,98115.59
2019-02-05T13:27:14.307Z,98116.83
2019-02-05T13:29:47.000Z,98119.11
2019-02-05T13:32:17.947Z,98114.87
2019-02-05T13:34:50.110Z,98117.30
2019-02-05T13:37:21.140Z,98118.72
2019-02-05T13:39:52.161Z,98111.14
2019-02-05T13:42:23.481Z,98105.19
2019-02-05T13:44:56.050Z,98113.14
2019-02-05T13:47:26.813Z,98126.45
2019-02-05T13:49:58.198Z,98126.23
2019-02-05T13:52:29.040Z,98136.00
2019-02-05T13:55:00.529Z,98132.30
2019-02-05T13:57:31.300Z,98134.87
2019-02-05T14:00:02.067Z,98135.66
2019-02-05T14:02:32.622Z,98139.30
2019-02-05T14:05:03.611Z,98139.45
2019-02-05T14:07:33.953Z,98136.23
2019-02-05T14:10:13.055Z,98133.70
2019-02-05T14:12:46.384Z,98130.56
2019-02-05T14:15:26.875Z,98124.81
2019-02-05T14:17:57.648Z,98121.80
2019-02-05T14:20:29.343Z,98125.58
2019-02-05T14:22:59.739Z,98120.56
2019-02-05T14:25:30.429Z,98114.21
2019-02-05T14:28:03.253Z,98121.75
2019-02-05T14:30:42.066Z,98119.20
2019-02-05T14:33:12.802Z,98120.62
2019-02-05T14:35:43.542Z,98116.03
2019-02-05T14:38:14.811Z,98115.38
2019-02-05T14:41:06.284Z,98114.09
2019-02-05T14:43:38.211Z,98114.58
2019-02-05T14:46:09.517Z,98116.38
2019-02-05T14:48:40.555Z,98122.56
2019-02-05T14:51:11.308Z,98116.70
2019-02-05T14:53:42.851Z,98118.60
2019-02-05T14:56:14.314Z,98120.98
2019-02-05T14:58:45.049Z,98126.56
2019-02-05T15:01:15.657Z,98120.07
2019-02-05T15:03:47.014Z,98122.95
2019-02-05T15:06:18.757Z,98126.31
2019-02-05T15:09:26.903Z,98129.42
2019-02-05T15:11:58.242Z,98130.88
2019-02-05T15:14:29.654Z,98127.45
2019-02-05T15:17:01.493Z,98134.48
2019-02-05T15:19:32.012Z,98134.88
2019-02-05T15:22:03.288Z,98136.98
2019-02-05T15:24:37.948Z,98146.03
2019-02-05T15:27:06.823Z,98138.84
2019-02-05T15:29:38.064Z,98143.87
2019-02-05T15:32:38.094Z,98144.68
2019-02-05T15:35:10.594Z,98142.61
2019-02-05T15:37:41.585Z,98136.80
2019-02-05T15:40:14.281Z,98130.41
2019-02-05T15:42:45.481Z,98124.77
2019-02-05T15:45:18.898Z,98125.70
2019-02-05T15:47:49.569Z,98128.61
2019-02-05T15:50:20.229Z,98126.66
2019-02-05T15:52:51.151Z,98120.88
2019-02-05T15:55:22.073Z,98109.80
2019-02-05T15:57:53.945Z,98114.17
2019-02-05T16:00:25.275Z,98113.20
2019-02-05T16:02:55.664Z,98115.45
2019-02-05T16:05:26.326Z,98115.77
2019-02-05T16:07:58.076Z,98111.91
2019-02-05T16:10:29.155Z,98118.98
2019-02-05T16:13:11.233Z,98117.36
2019-02-05T16:15:45.322Z,98122.33
2019-02-05T16:18:16.511Z,98116.38
2019-02-05T16:20:48.944Z,98122.33
2019-02-05T16:23:20.900Z,98115.59
2019-02-05T16:25:52.275Z,98118.78
2019-02-05T16:28:23.788Z,98117.77
2019-02-05T16:30:55.276Z,98117.90
2019-02-05T16:33:28.365Z,98119.67
2019-02-05T16:35:59.298Z,98124.34
2019-02-05T16:38:30.354Z,98130.33
2019-02-05T16:41:02.206Z,98130.00
2019-02-05T16:43:33.259Z,98134.78
2019-02-05T16:46:04.922Z,98134.30
2019-02-05T16:48:38.472Z,98136.52
2019-02-05T16:51:13.328Z,98141.84
2019-02-05T16:53:45.324Z,98144.55
2019-02-05T16:56:17.979Z,98143.89
2019-02-05T16:58:49.050Z,98152.53
2019-02-05T17:01:20.050Z,98156.39
2019-02-05T17:03:51.590Z,98158.80
2019-02-05T17:06:22.653Z,98161.88
2019-02-05T17:08:53.410Z,98158.69
2019-02-05T17:11:24.612Z,98160.76
2019-02-05T17:13:55.874Z,98162.55
2019-02-05T17:16:26.582Z,98161.27
2019-02-05T17:18:57.926Z,98167.23
2019-02-05T17:21:29.035Z,98164.34
2019-02-05T17:24:01.054Z,98169.19
2019-02-05T17:26:50.162Z,98172.28
2019-02-05T17:29:21.884Z,98172.61
2019-02-05T17:31:52.535Z,98175.18
2019-02-05T17:34:23.922Z,98167.62
2019-02-05T17:36:55.724Z,98163.77
2019-02-05T17:39:26.770Z,98172.27
2019-02-05T17:41:57.918Z,98170.81
2019-02-05T17:44:28.271Z,98174.84
2019-02-05T17:46:59.706Z,98174.22
2019-02-05T17:49:31.160Z,98176.02
2019-02-05T17:52:01.593Z,98171.98
2019-02-05T17:54:32.292Z,98182.91
2019-02-05T17:57:02.782Z,98188.88
2019-02-05T17:59:33.154Z,98185.02
2019-02-05T18:02:07.550Z,98192.25
2019-02-05T18:04:38.709Z,98186.97
2019-02-05T18:07:09.757Z,98187.91
2019-02-05T18:09:41.464Z,98185.98
2019-02-05T18:12:12.554Z,98190.64
2019-02-05T18:14:49.155Z,98183.55
2019-02-05T18:17:20.149Z,98186.94
2019-02-05T18:19:52.133Z,98188.38
2019-02-05T18:22:22.731Z,98185.16
2019-02-05T18:25:21.183Z,98194.46
2019-02-05T18:27:52.018Z,98198.64
2019-02-05T18:30:30.069Z,98196.23
2019-02-05T18:33:03.942Z,98195.11
2019-02-05T18:35:34.119Z,98190.60
2019-02-05T18:38:12.153Z,98184.95
2019-02-05T18:40:43.315Z,98187.88
2019-02-05T18:43:14.610Z,98184.97
2019-02-05T18:45:45.564Z,98179.97
2019-02-05T18:48:16.588Z,98178.34
2019-02-05T18:50:47.298Z,98178.67
2019-02-05T18:53:18.069Z,98174.32
2019-02-05T18:55:49.122Z,98176.25
2019-02-05T18:58:20.476Z,98172.08
2019-02-05T19:01:12.418Z,98174.49
2019-02-05T19:03:43.448Z,98171.10
2019-02-05T19:06:25.357Z,98168.66
2019-02-05T19:08:56.245Z,98164.28
2019-02-05T19:11:27.591Z,98179.34
2019-02-05T19:14:14.929Z,98170.06
2019-02-05T19:16:45.523Z,98173.92
2019-02-05T19:19:16.726Z,98175.22
2019-02-05T19:22:03.291Z,98173.28
2019-02-05T19:24:45.794Z,98176.33
2019-02-05T19:27:21.764Z,98176.02
2019-02-05T19:29:53.083Z,98180.50
2019-02-05T19:32:28.291Z,98181.80
2019-02-05T19:34:59.798Z,98188.39
2019-02-05T19:37:30.950Z,98189.64
2019-02-05T19:40:02.402Z,98187.40
2019-02-05T19:42:33.893Z,98188.69
2019-02-05T19:45:23.868Z,98188.86
2019-02-05T19:47:54.523Z,98179.56
2019-02-05T19:50:25.602Z,98181.84
2019-02-05T19:53:04.856Z,98183.97
2019-02-05T19:55:35.202Z,98186.25
2019-02-05T19:58:06.965Z,98187.07
2019-02-05T20:00:37.682Z,98183.66
2019-02-05T20:03:09.007Z,98182.25
2019-02-05T20:05:42.203Z,98182.94
2019-02-05T20:08:18.360Z,98183.10
2019-02-05T20:10:56.355Z,98180.34
2019-02-05T20:13:40.792Z,98183.41
2019-02-05T20:16:15.788Z,98183.41
2019-02-05T20:19:13.552Z,98181.65
2019-02-05T20:22:11.027Z,98182.47
2019-02-05T20:24:45.074Z,98186.48
2019-02-05T20:27:29.373Z,98184.53
2019-02-05T20:29:59.840Z,98189.84
2019-02-05T20:32:30.199Z,98185.19
2019-02-05T20:35:01.138Z,98190.83
2019-02-05T20:37:34.151Z,98183.27
2019-02-05T20:40:15.523Z,98181.96
2019-02-05T20:43:14.922Z,98187.08
2019-02-05T20:46:00.213Z,98187.77
2019-02-05T20:48:37.589Z,98189.20
2019-02-05T20:51:08.257Z,98196.28
2019-02-05T20:53:39.732Z,98191.61
2019-02-05T20:59:06.418Z,98198.06
2019-02-05T21:02:10.497Z,98197.09
2019-02-05T21:04:56.713Z,98189.98
2019-02-05T21:07:49.229Z,98192.72
2019-02-05T21:10:42.687Z,98191.27
2019-02-05T21:13:19.855Z,98191.24
2019-02-05T21:19:11.367Z,98195.79
2019-02-05T21:21:58.783Z,98203.53
2019-02-05T21:24:39.108Z,98205.14
2019-02-05T21:27:23.626Z,98206.42
2019-02-05T21:30:04.335Z,98207.53
2019-02-05T21:32:42.851Z,98210.59
2019-02-05T21:35:17.513Z,98213.81
2019-02-05T21:37:50.696Z,98205.16
2019-02-05T21:40:57.335Z,98210.15
2019-02-05T21:43:30.792Z,98215.77
2019-02-05T21:46:02.200Z,98206.44
2019-02-05T21:48:32.952Z,98207.20
2019-02-05T21:51:12.281Z,98205.47
2019-02-05T21:53:44.040Z,98204.82
2019-02-05T21:56:15.587Z,98206.91
2019-02-05T21:58:47.280Z,98200.16
2019-02-05T22:01:28.218Z,98202.58
2019-02-05T22:03:59.200Z,98203.52
2019-02-05T22:06:30.451Z,98196.44
2019-02-05T22:09:01.796Z,98201.42
2019-02-05T22:11:45.381Z,98199.64
2019-02-05T22:14:16.677Z,98191.27
2019-02-05T22:16:48.235Z,98191.76
2019-02-05T22:19:21.094Z,98193.66
2019-02-05T22:21:52.775Z,98195.95
2019-02-05T22:24:23.784Z,98192.37
2019-02-05T22:26:54.866Z,98189.80
2019-02-05T22:29:26.174Z,98184.80
2019-02-05T22:31:57.626Z,98187.09
2019-02-05T22:34:38.800Z,98189.62
2019-02-05T22:37:03.704Z,98179.20
2019-02-05T22:39:34.572Z,98184.48
2019-02-05T22:42:13.482Z,98183.06
2019-02-05T22:44:50.113Z,98180.81
2019-02-05T22:47:22.151Z,98185.17
2019-02-05T22:50:17.965Z,98177.92
2019-02-05T22:52:50.784Z,98178.41
2019-02-05T22:55:22.044Z,98179.41
2019-02-05T22:57:54.782Z,98172.77
2019-02-05T23:01:25.199Z,98177.09
2019-02-05T23:04:14.505Z,98174.67
2019-02-05T23:07:14.562Z,98168.09
2019-02-05T23:10:14.154Z,98165.68
2019-02-05T23:12:50.969Z,98167.16
2019-02-05T23:15:28.991Z,98164.23
2019-02-05T23:17:59.553Z,98172.41
2019-02-05T23:20:41.251Z,98171.46
2019-02-05T23:23:11.988Z,98172.91
2019-02-05T23:25:43.135Z,98165.39
2019-02-05T23:28:13.749Z,98163.64
2019-02-05T23:30:44.594Z,98160.39
2019-02-05T23:33:16.374Z,98156.55
2019-02-05T23:35:47.397Z,98155.27
2019-02-05T23:38:18.863Z,98154.59
2019-02-05T23:40:50.219Z,98150.13
2019-02-05T23:43:21.620Z,98152.34
2019-02-05T23:46:01.543Z,98144.89
2019-02-05T23:48:25.041Z,98146.83
2019-02-05T23:50:55.815Z,98149.92
2019-02-05T23:53:27.180Z,98147.98
2019-02-05T23:56:04.027Z,98150.47
2019-02-05T23:58:35.748Z,98148.02
